Sardinia Vera — IBWV — position and weather

sailwx.info

Track history (hours):
 
Tides and Currents Weather Stations Pressure Air Temp Water Temp Dewpoint Dewpoint Depression Visibility Wind Speed Wind Dir Waves Ship Positions

Sardinia Vera

Last reported at 2014-Jul-29 08:33 UTC. Time now 2014-Jul-29 23:00 UTC.
Position N 43°14' E 010°08'.

; draft 5.2 m.

Type: Passenger vessel. MMSI: 247392000.

Date/timePositionNaut miles runAvg speedWind from/ knotsBaromVisibWave heightAir tempDewpointWater temp
2014-Jul-29 08:33N 43°14' E 010°08'1716.7
2014-Jul-29 07:33N 43°30' E 010°13'4 4.5
2014-Jul-29 06:33N 43°33' E 010°18'0 0.0
2014-Jul-29 05:33N 43°33' E 010°18'3 3.0
2014-Jul-29 04:34N 43°31' E 010°15'1616.1
2014-Jul-29 03:34N 43°19' E 010°00'8 0.4
2014-Jul-28 08:33N 43°13' E 010°07'1817.5
2014-Jul-28 07:33N 43°30' E 010°13'5 4.7
2014-Jul-28 06:33N 43°33' E 010°18'0 0.0
2014-Jul-28 05:33N 43°33' E 010°18'3 2.9
2014-Jul-28 04:33N 43°31' E 010°15'1616.1
2014-Jul-28 03:33N 43°16' E 010°09'1111.3
2014-Jul-28 02:33N 43°07' E 009°59'1616.1
2014-Jul-28 01:33N 42°52' E 009°53'1717.0
2014-Jul-28 00:33N 42°35' E 009°55'39 1.5
2014-Jul-26 21:32N 43°13' E 010°09'1717.2
2014-Jul-26 20:34N 43°29' E 010°12'6 5.6
2014-Jul-26 19:33N 43°33' E 010°18'0 0.0
2014-Jul-26 18:33N 43°33' E 010°18'0 0.0
2014-Jul-26 17:33N 43°33' E 010°18'0 0.0
2014-Jul-26 16:34N 43°33' E 010°18'4 3.9
2014-Jul-26 15:33N 43°30' E 010°14'1817.9
2014-Jul-26 14:33N 43°17' E 009°57'7 0.9
2014-Jul-26 07:33N 43°17' E 010°06'1616.0
2014-Jul-26 06:32N 43°32' E 010°16'2 2.0
2014-Jul-26 05:33N 43°33' E 010°18'0 0.0
2014-Jul-26 04:33N 43°33' E 010°18'6 6.3
2014-Jul-26 03:33N 43°28' E 010°13'1716.7
2014-Jul-26 02:34N 43°12' E 010°08'3617.1
2014-Jul-26 00:28N 42°37' E 009°58'1617.3
2014-Jul-25 23:32N 42°21' E 009°54'5117.2
2014-Jul-25 20:33N 41°30' E 009°46'1717.4
2014-Jul-25 19:33N 41°13' E 009°43'14 4.6
2014-Jul-25 16:30N 40°59' E 009°40'13117.6
2014-Jul-25 09:04N 43°09' E 010°06'917.3
2014-Jul-25 08:33N 43°17' E 010°09'1615.5
2014-Jul-25 07:33N 43°32' E 010°16'2 1.7
2014-Jul-25 06:33N 43°33' E 010°18'0 0.0
2014-Jul-25 05:33N 43°33' E 010°18'2 2.4
2014-Jul-25 04:33N 43°31' E 010°16'1515.1
2014-Jul-25 03:33N 43°18' E 010°08'2 0.1
2014-Jul-24 08:33N 43°15' E 010°09'1616.0
2014-Jul-24 07:33N 43°31' E 010°14'4 3.9
2014-Jul-24 06:33N 43°33' E 010°18'0 0.0
2014-Jul-24 05:33N 43°33' E 010°18'4 3.7
2014-Jul-24 04:33N 43°30' E 010°15'1717.2
2014-Jul-24 03:34N 43°14' E 010°07'1817.2
2014-Jul-24 02:31N 42°57' E 010°00'1616.8
2014-Jul-24 01:33N 42°41' E 009°58'1717.1
2014-Jul-24 00:33N 42°24' E 009°55'2 0.1
2014-Jul-23 11:25N 42°26' E 009°55'1717.3
2014-Jul-23 10:28N 42°42' E 009°58'1818.0
2014-Jul-23 09:28N 42°60' E 010°03'1618.0
2014-Jul-23 08:33N 43°16' E 010°08'1515.3
2014-Jul-23 07:33N 43°30' E 010°13'4 4.4
2014-Jul-23 06:33N 43°33' E 010°18'0 0.0
2014-Jul-23 05:29N 43°33' E 010°18'4 3.9
2014-Jul-23 04:34N 43°31' E 010°14'1717.1
2014-Jul-23 03:32N 43°14' E 010°06'1717.3
2014-Jul-23 02:33N 42°58' E 009°59'1717.2
2014-Jul-23 01:33N 42°41' E 009°56'2017.3
2014-Jul-23 00:23N 42°21' E 009°54'56 3.5
2014-Jul-22 08:33N 43°16' E 010°07'1716.6
2014-Jul-22 07:32N 43°32' E 010°15'3 2.7
2014-Jul-22 06:34N 43°33' E 010°18'0 0.0
2014-Jul-22 05:33N 43°33' E 010°18'7 6.6
2014-Jul-22 04:34N 43°28' E 010°12'1717.3
2014-Jul-22 03:34N 43°12' E 010°04'2 0.1
2014-Jul-21 08:33N 43°13' E 010°04'1716.6
2014-Jul-21 07:33N 43°29' E 010°12'6 6.2
2014-Jul-21 06:33N 43°33' E 010°18'0 0.0
2014-Jul-21 05:33N 43°33' E 010°18'3 3.4
2014-Jul-21 04:33N 43°31' E 010°15'1515.0
2014-Jul-21 03:33N 43°17' E 010°08'1712.8
2014-Jul-21 02:13N 42°60' E 010°03'123 8.2
2014-Jul-20 11:20N 40°59' E 009°36'6 1.0
2014-Jul-20 05:31N 41°03' E 009°42'5317.1
2014-Jul-20 02:23N 41°56' E 009°50'1417.3
2014-Jul-20 01:33N 42°10' E 009°53'1717.0
2014-Jul-20 00:33N 42°27' E 009°56'2317.2
2014-Jul-19 23:14N 42°50' E 009°60'1217.5
2014-Jul-19 22:33N 43°01' E 010°03'1716.6
2014-Jul-19 21:33N 43°17' E 010°09'1313.0
2014-Jul-19 20:33N 43°30' E 010°13'5 4.5
2014-Jul-19 19:31N 43°33' E 010°18'0 0.0
2014-Jul-19 17:24N 43°33' E 010°18'0 0.0
2014-Jul-19 16:17N 43°33' E 010°18'0 0.0
2014-Jul-19 15:33N 43°33' E 010°18'1010.4
2014-Jul-19 14:33N 43°25' E 010°08'1817.8
2014-Jul-19 13:33N 43°13' E 009°51'1717.4
2014-Jul-19 12:33N 42°59' E 009°38'12 4.0
2014-Jul-19 09:33N 42°47' E 009°36'  
Track history (hours):
 
Tides and Currents Weather Stations Pressure Air Temp Water Temp Dewpoint Dewpoint Depression Visibility Wind Speed Wind Dir Waves Ship Positions

Sardinia Vera

Last reported at 2014-Jul-29 08:33 UTC. Time now 2014-Jul-29 23:00 UTC.
Position N 43°14' E 010°08'.

; draft 5.2 m.

Type: Passenger vessel. MMSI: 247392000.

Date/timePositionNaut miles runAvg speedWind from/ knotsBaromVisibWave heightAir tempDewpointWater temp
2014-Jul-29 08:33N 43°14' E 010°08'1716.7
2014-Jul-29 07:33N 43°30' E 010°13'4 4.5
2014-Jul-29 06:33N 43°33' E 010°18'0 0.0
2014-Jul-29 05:33N 43°33' E 010°18'3 3.0
2014-Jul-29 04:34N 43°31' E 010°15'1616.1
2014-Jul-29 03:34N 43°19' E 010°00'8 0.4
2014-Jul-28 08:33N 43°13' E 010°07'1817.5
2014-Jul-28 07:33N 43°30' E 010°13'5 4.7
2014-Jul-28 06:33N 43°33' E 010°18'0 0.0
2014-Jul-28 05:33N 43°33' E 010°18'3 2.9
2014-Jul-28 04:33N 43°31' E 010°15'1616.1
2014-Jul-28 03:33N 43°16' E 010°09'1111.3
2014-Jul-28 02:33N 43°07' E 009°59'1616.1
2014-Jul-28 01:33N 42°52' E 009°53'1717.0
2014-Jul-28 00:33N 42°35' E 009°55'39 1.5
2014-Jul-26 21:32N 43°13' E 010°09'1717.2
2014-Jul-26 20:34N 43°29' E 010°12'6 5.6
2014-Jul-26 19:33N 43°33' E 010°18'0 0.0
2014-Jul-26 18:33N 43°33' E 010°18'0 0.0
2014-Jul-26 17:33N 43°33' E 010°18'0 0.0
2014-Jul-26 16:34N 43°33' E 010°18'4 3.9
2014-Jul-26 15:33N 43°30' E 010°14'1817.9
2014-Jul-26 14:33N 43°17' E 009°57'7 0.9
2014-Jul-26 07:33N 43°17' E 010°06'1616.0
2014-Jul-26 06:32N 43°32' E 010°16'2 2.0
2014-Jul-26 05:33N 43°33' E 010°18'0 0.0
2014-Jul-26 04:33N 43°33' E 010°18'6 6.3
2014-Jul-26 03:33N 43°28' E 010°13'1716.7
2014-Jul-26 02:34N 43°12' E 010°08'3617.1
2014-Jul-26 00:28N 42°37' E 009°58'1617.3
2014-Jul-25 23:32N 42°21' E 009°54'5117.2
2014-Jul-25 20:33N 41°30' E 009°46'1717.4
2014-Jul-25 19:33N 41°13' E 009°43'14 4.6
2014-Jul-25 16:30N 40°59' E 009°40'13117.6
2014-Jul-25 09:04N 43°09' E 010°06'917.3
2014-Jul-25 08:33N 43°17' E 010°09'1615.5
2014-Jul-25 07:33N 43°32' E 010°16'2 1.7
2014-Jul-25 06:33N 43°33' E 010°18'0 0.0
2014-Jul-25 05:33N 43°33' E 010°18'2 2.4
2014-Jul-25 04:33N 43°31' E 010°16'1515.1
2014-Jul-25 03:33N 43°18' E 010°08'2 0.1
2014-Jul-24 08:33N 43°15' E 010°09'1616.0
2014-Jul-24 07:33N 43°31' E 010°14'4 3.9
2014-Jul-24 06:33N 43°33' E 010°18'0 0.0
2014-Jul-24 05:33N 43°33' E 010°18'4 3.7
2014-Jul-24 04:33N 43°30' E 010°15'1717.2
2014-Jul-24 03:34N 43°14' E 010°07'1817.2
2014-Jul-24 02:31N 42°57' E 010°00'1616.8
2014-Jul-24 01:33N 42°41' E 009°58'1717.1
2014-Jul-24 00:33N 42°24' E 009°55'2 0.1
2014-Jul-23 11:25N 42°26' E 009°55'1717.3
2014-Jul-23 10:28N 42°42' E 009°58'1818.0
2014-Jul-23 09:28N 42°60' E 010°03'1618.0
2014-Jul-23 08:33N 43°16' E 010°08'1515.3
2014-Jul-23 07:33N 43°30' E 010°13'4 4.4
2014-Jul-23 06:33N 43°33' E 010°18'0 0.0
2014-Jul-23 05:29N 43°33' E 010°18'4 3.9
2014-Jul-23 04:34N 43°31' E 010°14'1717.1
2014-Jul-23 03:32N 43°14' E 010°06'1717.3
2014-Jul-23 02:33N 42°58' E 009°59'1717.2
2014-Jul-23 01:33N 42°41' E 009°56'2017.3
2014-Jul-23 00:23N 42°21' E 009°54'56 3.5
2014-Jul-22 08:33N 43°16' E 010°07'1716.6
2014-Jul-22 07:32N 43°32' E 010°15'3 2.7
2014-Jul-22 06:34N 43°33' E 010°18'0 0.0
2014-Jul-22 05:33N 43°33' E 010°18'7 6.6
2014-Jul-22 04:34N 43°28' E 010°12'1717.3
2014-Jul-22 03:34N 43°12' E 010°04'2 0.1
2014-Jul-21 08:33N 43°13' E 010°04'1716.6
2014-Jul-21 07:33N 43°29' E 010°12'6 6.2
2014-Jul-21 06:33N 43°33' E 010°18'0 0.0
2014-Jul-21 05:33N 43°33' E 010°18'3 3.4
2014-Jul-21 04:33N 43°31' E 010°15'1515.0
2014-Jul-21 03:33N 43°17' E 010°08'1712.8
2014-Jul-21 02:13N 42°60' E 010°03'123 8.2
2014-Jul-20 11:20N 40°59' E 009°36'6 1.0
2014-Jul-20 05:31N 41°03' E 009°42'5317.1
2014-Jul-20 02:23N 41°56' E 009°50'1417.3
2014-Jul-20 01:33N 42°10' E 009°53'1717.0
2014-Jul-20 00:33N 42°27' E 009°56'2317.2
2014-Jul-19 23:14N 42°50' E 009°60'1217.5
2014-Jul-19 22:33N 43°01' E 010°03'1716.6
2014-Jul-19 21:33N 43°17' E 010°09'1313.0
2014-Jul-19 20:33N 43°30' E 010°13'5 4.5
2014-Jul-19 19:31N 43°33' E 010°18'0 0.0
2014-Jul-19 17:24N 43°33' E 010°18'0 0.0
2014-Jul-19 16:17N 43°33' E 010°18'0 0.0
2014-Jul-19 15:33N 43°33' E 010°18'1010.4
2014-Jul-19 14:33N 43°25' E 010°08'1817.8
2014-Jul-19 13:33N 43°13' E 009°51'1717.4
2014-Jul-19 12:33N 42°59' E 009°38'12 4.0
2014-Jul-19 09:33N 42°47' E 009°36'  

Dump ship's entire track history